sensor_id;sensor_type;location;lat;lon;timestamp;pressure;altitude;pressure_sealevel;temperature;humidity
80624;BME280;70269;44.768;9.600;2023-08-12T00:00:16;98080.81;;;19.48;76.50
80624;BME280;70269;44.768;9.600;2023-08-12T00:02:44;98078.66;;;19.50;76.68
80624;BME280;70269;44.768;9.600;2023-08-12T00:05:11;98081.06;;;19.47;76.85
80624;BME280;70269;44.768;9.600;2023-08-12T00:07:38;98073.59;;;19.42;76.85
80624;BME280;70269;44.768;9.600;2023-08-12T00:10:04;98073.44;;;19.32;77.19
80624;BME280;70269;44.768;9.600;2023-08-12T00:12:34;98075.38;;;19.31;77.29
80624;BME280;70269;44.768;9.600;2023-08-12T00:15:00;98079.44;;;19.29;77.53
80624;BME280;70269;44.768;9.600;2023-08-12T00:17:25;98075.47;;;19.20;77.87
80624;BME280;70269;44.768;9.600;2023-08-12T00:19:51;98081.97;;;19.14;78.12
80624;BME280;70269;44.768;9.600;2023-08-12T00:22:17;98077.25;;;19.09;78.25
80624;BME280;70269;44.768;9.600;2023-08-12T00:24:43;98073.69;;;19.09;78.23
80624;BME280;70269;44.768;9.600;2023-08-12T00:27:08;98075.34;;;19.10;77.98
80624;BME280;70269;44.768;9.600;2023-08-12T00:29:34;98073.91;;;19.07;78.20
80624;BME280;70269;44.768;9.600;2023-08-12T00:32:00;98077.41;;;19.03;78.51
80624;BME280;70269;44.768;9.600;2023-08-12T00:34:26;98077.75;;;19.06;78.23
80624;BME280;70269;44.768;9.600;2023-08-12T00:36:52;98075.75;;;19.02;78.55
80624;BME280;70269;44.768;9.600;2023-08-12T00:39:18;98074.50;;;19.09;78.12
80624;BME280;70269;44.768;9.600;2023-08-12T00:41:43;98071.19;;;19.07;77.95
80624;BME280;70269;44.768;9.600;2023-08-12T00:44:09;98065.97;;;19.06;78.08
80624;BME280;70269;44.768;9.600;2023-08-12T00:46:34;98071.94;;;19.03;78.13
80624;BME280;70269;44.768;9.600;2023-08-12T00:49:00;98074.94;;;19.01;78.36
80624;BME280;70269;44.768;9.600;2023-08-12T00:51:27;98072.94;;;18.96;78.66
80624;BME280;70269;44.768;9.600;2023-08-12T00:53:52;98071.56;;;18.94;78.68
80624;BME280;70269;44.768;9.600;2023-08-12T00:56:20;98070.38;;;18.90;78.99
80624;BME280;70269;44.768;9.600;2023-08-12T00:58:46;98071.22;;;18.90;79.02
80624;BME280;70269;44.768;9.600;2023-08-12T01:01:13;98074.53;;;18.92;78.94
80624;BME280;70269;44.768;9.600;2023-08-12T01:03:38;98072.13;;;18.96;78.98
80624;BME280;70269;44.768;9.600;2023-08-12T01:06:06;98068.31;;;18.97;78.71
80624;BME280;70269;44.768;9.600;2023-08-12T01:08:32;98068.84;;;18.94;78.86
80624;BME280;70269;44.768;9.600;2023-08-12T01:11:36;98073.66;;;18.87;79.61
80624;BME280;70269;44.768;9.600;2023-08-12T01:16:30;98074.66;;;18.81;79.70
80624;BME280;70269;44.768;9.600;2023-08-12T01:18:59;98075.97;;;18.78;79.93
80624;BME280;70269;44.768;9.600;2023-08-12T01:21:29;98078.03;;;18.71;80.19
80624;BME280;70269;44.768;9.600;2023-08-12T01:23:55;98072.50;;;18.66;80.23
80624;BME280;70269;44.768;9.600;2023-08-12T01:26:21;98070.59;;;18.67;79.99
80624;BME280;70269;44.768;9.600;2023-08-12T01:28:47;98072.41;;;18.61;80.16
80624;BME280;70269;44.768;9.600;2023-08-12T01:31:24;98069.00;;;18.54;80.65
80624;BME280;70269;44.768;9.600;2023-08-12T01:33:59;98062.13;;;18.51;80.77
80624;BME280;70269;44.768;9.600;2023-08-12T01:36:29;98065.41;;;18.53;80.60
80624;BME280;70269;44.768;9.600;2023-08-12T01:38:58;98071.13;;;18.52;80.67
80624;BME280;70269;44.768;9.600;2023-08-12T01:41:25;98063.75;;;18.52;80.56
80624;BME280;70269;44.768;9.600;2023-08-12T01:43:50;98064.34;;;18.54;80.47
80624;BME280;70269;44.768;9.600;2023-08-12T01:46:16;98063.06;;;18.57;80.21
80624;BME280;70269;44.768;9.600;2023-08-12T01:48:42;98052.69;;;18.59;80.04
80624;BME280;70269;44.768;9.600;2023-08-12T01:51:08;98065.41;;;18.53;80.62
80624;BME280;70269;44.768;9.600;2023-08-12T01:53:33;98057.13;;;18.48;81.03
80624;BME280;70269;44.768;9.600;2023-08-12T01:55:59;98052.69;;;18.59;80.05
80624;BME280;70269;44.768;9.600;2023-08-12T01:58:24;98052.25;;;18.50;80.59
80624;BME280;70269;44.768;9.600;2023-08-12T02:00:52;98044.28;;;18.49;80.59
80624;BME280;70269;44.768;9.600;2023-08-12T02:03:18;98052.50;;;18.49;80.89
80624;BME280;70269;44.768;9.600;2023-08-12T02:05:43;98051.75;;;18.53;80.48
80624;BME280;70269;44.768;9.600;2023-08-12T02:08:09;98051.28;;;18.56;80.38
80624;BME280;70269;44.768;9.600;2023-08-12T02:10:34;98056.66;;;18.51;80.56
80624;BME280;70269;44.768;9.600;2023-08-12T02:13:00;98058.13;;;18.42;80.83
80624;BME280;70269;44.768;9.600;2023-08-12T02:15:26;98048.44;;;18.35;81.49
80624;BME280;70269;44.768;9.600;2023-08-12T02:17:52;98054.88;;;18.29;81.69
80624;BME280;70269;44.768;9.600;2023-08-12T02:20:17;98053.72;;;18.25;81.85
80624;BME280;70269;44.768;9.600;2023-08-12T02:22:44;98055.88;;;18.23;81.93
80624;BME280;70269;44.768;9.600;2023-08-12T02:25:09;98059.97;;;18.20;82.15
80624;BME280;70269;44.768;9.600;2023-08-12T02:27:34;98062.56;;;18.15;82.23
80624;BME280;70269;44.768;9.600;2023-08-12T02:30:00;98063.91;;;18.12;82.39
80624;BME280;70269;44.768;9.600;2023-08-12T02:32:26;98067.97;;;18.10;82.53
80624;BME280;70269;44.768;9.600;2023-08-12T02:34:52;98059.19;;;18.08;82.50
80624;BME280;70269;44.768;9.600;2023-08-12T02:37:18;98054.72;;;18.02;82.79
80624;BME280;70269;44.768;9.600;2023-08-12T02:39:45;98061.25;;;18.01;82.79
80624;BME280;70269;44.768;9.600;2023-08-12T02:42:10;98056.84;;;18.00;83.19
80624;BME280;70269;44.768;9.600;2023-08-12T02:44:36;98046.75;;;18.00;83.19
80624;BME280;70269;44.768;9.600;2023-08-12T02:47:02;98050.41;;;18.06;82.93
80624;BME280;70269;44.768;9.600;2023-08-12T02:49:27;98048.00;;;18.09;82.73
80624;BME280;70269;44.768;9.600;2023-08-12T02:51:53;98041.81;;;18.14;82.76
80624;BME280;70269;44.768;9.600;2023-08-12T02:54:19;98042.63;;;18.14;82.43
80624;BME280;70269;44.768;9.600;2023-08-12T02:56:44;98039.16;;;18.19;82.10
80624;BME280;70269;44.768;9.600;2023-08-12T02:59:10;98041.06;;;18.18;81.87
80624;BME280;70269;44.768;9.600;2023-08-12T03:01:35;98040.63;;;18.10;82.26
80624;BME280;70269;44.768;9.600;2023-08-12T03:04:01;98038.81;;;18.15;81.93
80624;BME280;70269;44.768;9.600;2023-08-12T03:06:26;98035.66;;;18.07;82.63
80624;BME280;70269;44.768;9.600;2023-08-12T03:08:52;98033.41;;;18.04;82.73
80624;BME280;70269;44.768;9.600;2023-08-12T03:11:18;98025.56;;;18.07;82.76
80624;BME280;70269;44.768;9.600;2023-08-12T03:13:45;98030.88;;;18.14;82.19
80624;BME280;70269;44.768;9.600;2023-08-12T03:16:12;98024.56;;;18.13;82.27
80624;BME280;70269;44.768;9.600;2023-08-12T03:18:40;98025.28;;;18.09;82.60
80624;BME280;70269;44.768;9.600;2023-08-12T03:21:07;98028.84;;;18.09;82.45
80624;BME280;70269;44.768;9.600;2023-08-12T03:23:34;98020.94;;;18.08;82.24
80624;BME280;70269;44.768;9.600;2023-08-12T03:26:00;98024.72;;;18.07;82.57
80624;BME280;70269;44.768;9.600;2023-08-12T03:28:26;98020.56;;;18.04;82.68
80624;BME280;70269;44.768;9.600;2023-08-12T03:30:52;98027.03;;;17.98;82.85
80624;BME280;70269;44.768;9.600;2023-08-12T03:33:20;98031.34;;;17.94;83.43
80624;BME280;70269;44.768;9.600;2023-08-12T03:35:46;98030.59;;;17.99;83.14
80624;BME280;70269;44.768;9.600;2023-08-12T03:38:14;98025.13;;;17.99;82.93
80624;BME280;70269;44.768;9.600;2023-08-12T03:40:40;98037.13;;;17.98;83.04
80624;BME280;70269;44.768;9.600;2023-08-12T03:43:08;98027.53;;;17.95;83.15
80624;BME280;70269;44.768;9.600;2023-08-12T03:45:43;98032.50;;;17.98;82.87
80624;BME280;70269;44.768;9.600;2023-08-12T03:48:11;98034.63;;;17.96;83.03
80624;BME280;70269;44.768;9.600;2023-08-12T03:50:37;98030.50;;;17.94;82.88
80624;BME280;70269;44.768;9.600;2023-08-12T03:53:03;98026.34;;;17.91;83.03
80624;BME280;70269;44.768;9.600;2023-08-12T03:55:33;98037.78;;;17.88;83.13
80624;BME280;70269;44.768;9.600;2023-08-12T03:58:00;98021.88;;;17.85;83.21
80624;BME280;70269;44.768;9.600;2023-08-12T04:00:27;98020.94;;;17.79;83.49
80624;BME280;70269;44.768;9.600;2023-08-12T04:02:56;98021.53;;;17.82;83.49
80624;BME280;70269;44.768;9.600;2023-08-12T04:05:21;98027.09;;;17.87;83.43
80624;BME280;70269;44.768;9.600;2023-08-12T04:07:48;98025.34;;;17.81;83.68
80624;BME280;70269;44.768;9.600;2023-08-12T04:10:13;98027.84;;;17.82;83.47
80624;BME280;70269;44.768;9.600;2023-08-12T04:12:40;98018.56;;;17.83;83.87
80624;BME280;70269;44.768;9.600;2023-08-12T04:15:07;98014.81;;;17.72;84.00
80624;BME280;70269;44.768;9.600;2023-08-12T04:17:34;98017.28;;;17.74;83.91
80624;BME280;70269;44.768;9.600;2023-08-12T04:20:00;98020.25;;;17.72;84.10
80624;BME280;70269;44.768;9.600;2023-08-12T04:22:26;98019.03;;;17.80;83.84
80624;BME280;70269;44.768;9.600;2023-08-12T04:24:53;98015.25;;;17.81;83.36
80624;BME280;70269;44.768;9.600;2023-08-12T04:27:19;98028.16;;;17.86;83.43
80624;BME280;70269;44.768;9.600;2023-08-12T04:29:46;98015.09;;;17.88;83.12
80624;BME280;70269;44.768;9.600;2023-08-12T04:32:12;98029.81;;;17.87;83.23
80624;BME280;70269;44.768;9.600;2023-08-12T04:34:38;98024.59;;;17.85;83.18
80624;BME280;70269;44.768;9.600;2023-08-12T04:37:04;98024.28;;;17.82;83.23
80624;BME280;70269;44.768;9.600;2023-08-12T04:39:30;98026.41;;;17.79;83.69
80624;BME280;70269;44.768;9.600;2023-08-12T04:41:58;98034.38;;;17.81;83.60
80624;BME280;70269;44.768;9.600;2023-08-12T04:44:23;98026.41;;;17.79;83.91
80624;BME280;70269;44.768;9.600;2023-08-12T04:46:49;98032.47;;;17.82;83.56
80624;BME280;70269;44.768;9.600;2023-08-12T04:49:17;98030.91;;;17.86;83.45
80624;BME280;70269;44.768;9.600;2023-08-12T04:51:42;98041.91;;;17.91;83.36
80624;BME280;70269;44.768;9.600;2023-08-12T04:54:08;98038.09;;;17.92;83.43
80624;BME280;70269;44.768;9.600;2023-08-12T04:56:34;98039.31;;;17.96;83.07
80624;BME280;70269;44.768;9.600;2023-08-12T04:59:01;98037.72;;;18.16;82.57
80624;BME280;70269;44.768;9.600;2023-08-12T05:01:27;98043.72;;;18.80;79.96
80624;BME280;70269;44.768;9.600;2023-08-12T05:03:54;98042.28;;;19.38;77.32
80624;BME280;70269;44.768;9.600;2023-08-12T05:06:20;98045.41;;;19.90;75.09
80624;BME280;70269;44.768;9.600;2023-08-12T05:08:46;98037.53;;;20.31;73.26
80624;BME280;70269;44.768;9.600;2023-08-12T05:11:12;98037.31;;;20.64;71.65
80624;BME280;70269;44.768;9.600;2023-08-12T05:13:38;98036.31;;;20.80;70.96
80624;BME280;70269;44.768;9.600;2023-08-12T05:16:03;98045.28;;;21.08;69.45
80624;BME280;70269;44.768;9.600;2023-08-12T05:18:29;98042.38;;;21.29;68.91
80624;BME280;70269;44.768;9.600;2023-08-12T05:20:54;98041.41;;;21.51;67.93
80624;BME280;70269;44.768;9.600;2023-08-12T05:23:21;98046.16;;;21.70;67.55
80624;BME280;70269;44.768;9.600;2023-08-12T05:25:47;98052.50;;;21.91;66.68
80624;BME280;70269;44.768;9.600;2023-08-12T05:28:12;98053.81;;;21.68;67.16
80624;BME280;70269;44.768;9.600;2023-08-12T05:30:38;98051.66;;;21.75;66.79
80624;BME280;70269;44.768;9.600;2023-08-12T05:33:04;98051.13;;;21.78;66.77
80624;BME280;70269;44.768;9.600;2023-08-12T05:35:34;98044.34;;;22.11;65.72
80624;BME280;70269;44.768;9.600;2023-08-12T05:37:59;98050.13;;;22.35;65.21
80624;BME280;70269;44.768;9.600;2023-08-12T05:40:25;98059.22;;;22.56;64.79
80624;BME280;70269;44.768;9.600;2023-08-12T05:42:50;98049.06;;;22.82;63.64
80624;BME280;70269;44.768;9.600;2023-08-12T05:45:16;98055.94;;;22.89;63.00
80624;BME280;70269;44.768;9.600;2023-08-12T05:47:41;98054.31;;;22.83;63.85
80624;BME280;70269;44.768;9.600;2023-08-12T05:50:07;98049.03;;;23.07;62.33
80624;BME280;70269;44.768;9.600;2023-08-12T05:52:33;98049.28;;;23.06;62.81
80624;BME280;70269;44.768;9.600;2023-08-12T05:54:58;98054.25;;;23.04;62.73
80624;BME280;70269;44.768;9.600;2023-08-12T05:57:24;98046.59;;;22.80;63.22
80624;BME280;70269;44.768;9.600;2023-08-12T05:59:49;98046.28;;;22.72;63.59
80624;BME280;70269;44.768;9.600;2023-08-12T06:02:15;98048.50;;;22.80;63.43
80624;BME280;70269;44.768;9.600;2023-08-12T06:04:41;98044.63;;;23.06;62.64
80624;BME280;70269;44.768;9.600;2023-08-12T06:07:07;98049.53;;;23.24;62.21
80624;BME280;70269;44.768;9.600;2023-08-12T06:09:32;98040.19;;;23.20;62.35
80624;BME280;70269;44.768;9.600;2023-08-12T06:11:58;98037.44;;;23.20;62.00
80624;BME280;70269;44.768;9.600;2023-08-12T06:14:23;98035.59;;;23.65;61.13
80624;BME280;70269;44.768;9.600;2023-08-12T06:16:49;98037.22;;;23.76;60.65
80624;BME280;70269;44.768;9.600;2023-08-12T06:19:14;98038.84;;;23.82;60.70
80624;BME280;70269;44.768;9.600;2023-08-12T06:21:40;98041.00;;;23.90;60.22
80624;BME280;70269;44.768;9.600;2023-08-12T06:24:06;98053.13;;;23.94;60.43
80624;BME280;70269;44.768;9.600;2023-08-12T06:26:31;98038.94;;;24.11;59.76
80624;BME280;70269;44.768;9.600;2023-08-12T06:28:57;98041.38;;;24.23;59.45
80624;BME280;70269;44.768;9.600;2023-08-12T06:31:23;98050.34;;;24.38;59.03
80624;BME280;70269;44.768;9.600;2023-08-12T06:33:48;98050.22;;;24.19;59.63
80624;BME280;70269;44.768;9.600;2023-08-12T06:36:14;98045.59;;;24.49;58.67
80624;BME280;70269;44.768;9.600;2023-08-12T06:38:39;98043.25;;;24.66;58.80
80624;BME280;70269;44.768;9.600;2023-08-12T06:41:05;98040.91;;;24.78;58.57
80624;BME280;70269;44.768;9.600;2023-08-12T06:43:30;98039.16;;;24.87;58.49
80624;BME280;70269;44.768;9.600;2023-08-12T06:45:56;98037.50;;;24.91;57.83
80624;BME280;70269;44.768;9.600;2023-08-12T06:48:21;98045.63;;;25.07;57.58
80624;BME280;70269;44.768;9.600;2023-08-12T06:50:53;98040.50;;;25.24;56.82
80624;BME280;70269;44.768;9.600;2023-08-12T06:53:19;98044.91;;;25.49;56.47
80624;BME280;70269;44.768;9.600;2023-08-12T06:55:45;98049.44;;;25.63;56.21
80624;BME280;70269;44.768;9.600;2023-08-12T06:58:13;98041.53;;;25.75;55.65
80624;BME280;70269;44.768;9.600;2023-08-12T07:00:39;98043.34;;;25.66;55.87
80624;BME280;70269;44.768;9.600;2023-08-12T07:03:04;98045.19;;;25.71;56.35
80624;BME280;70269;44.768;9.600;2023-08-12T07:05:30;98044.59;;;25.74;57.29
80624;BME280;70269;44.768;9.600;2023-08-12T07:07:55;98044.97;;;25.86;56.03
80624;BME280;70269;44.768;9.600;2023-08-12T07:10:21;98041.09;;;25.87;55.89
80624;BME280;70269;44.768;9.600;2023-08-12T07:12:46;98045.41;;;25.74;55.93
80624;BME280;70269;44.768;9.600;2023-08-12T07:15:12;98035.94;;;25.99;55.28
80624;BME280;70269;44.768;9.600;2023-08-12T07:17:37;98041.84;;;25.93;56.00
80624;BME280;70269;44.768;9.600;2023-08-12T07:20:03;98037.00;;;25.85;55.21
80624;BME280;70269;44.768;9.600;2023-08-12T07:22:29;98037.66;;;25.76;56.05
80624;BME280;70269;44.768;9.600;2023-08-12T07:24:55;98040.66;;;26.17;53.87
80624;BME280;70269;44.768;9.600;2023-08-12T07:27:20;98029.91;;;26.16;54.53
80624;BME280;70269;44.768;9.600;2023-08-12T07:29:46;98036.41;;;26.44;54.13
80624;BME280;70269;44.768;9.600;2023-08-12T07:32:12;98029.00;;;26.39;52.87
80624;BME280;70269;44.768;9.600;2023-08-12T07:34:38;98034.25;;;26.41;53.90
80624;BME280;70269;44.768;9.600;2023-08-12T07:37:03;98032.81;;;26.06;55.22
80624;BME280;70269;44.768;9.600;2023-08-12T07:39:29;98032.81;;;26.06;54.92
80624;BME280;70269;44.768;9.600;2023-08-12T07:41:54;98027.59;;;26.04;54.73
80624;BME280;70269;44.768;9.600;2023-08-12T07:44:20;98021.88;;;25.53;56.70
80624;BME280;70269;44.768;9.600;2023-08-12T07:46:45;98026.91;;;26.12;57.72
80624;BME280;70269;44.768;9.600;2023-08-12T07:49:11;98027.25;;;25.87;55.16
80624;BME280;70269;44.768;9.600;2023-08-12T07:51:36;98030.78;;;25.93;54.78
80624;BME280;70269;44.768;9.600;2023-08-12T07:54:02;98020.84;;;25.73;56.28
80624;BME280;70269;44.768;9.600;2023-08-12T07:56:27;98031.69;;;26.44;53.82
80624;BME280;70269;44.768;9.600;2023-08-12T07:58:53;98025.41;;;26.90;53.99
80624;BME280;70269;44.768;9.600;2023-08-12T08:01:18;98025.69;;;26.56;55.21
80624;BME280;70269;44.768;9.600;2023-08-12T08:03:44;98026.75;;;27.06;52.16
80624;BME280;70269;44.768;9.600;2023-08-12T08:06:09;98027.31;;;27.22;52.44
80624;BME280;70269;44.768;9.600;2023-08-12T08:08:35;98021.66;;;27.27;52.28
80624;BME280;70269;44.768;9.600;2023-08-12T08:11:00;98029.34;;;27.03;52.50
80624;BME280;70269;44.768;9.600;2023-08-12T08:13:26;98036.66;;;27.26;52.58
80624;BME280;70269;44.768;9.600;2023-08-12T08:15:51;98024.94;;;27.43;51.82
80624;BME280;70269;44.768;9.600;2023-08-12T08:18:17;98019.13;;;27.58;51.18
80624;BME280;70269;44.768;9.600;2023-08-12T08:20:43;98015.72;;;27.61;50.28
80624;BME280;70269;44.768;9.600;2023-08-12T08:23:08;98021.63;;;27.95;50.23
80624;BME280;70269;44.768;9.600;2023-08-12T08:25:34;98023.38;;;27.91;49.40
80624;BME280;70269;44.768;9.600;2023-08-12T08:27:59;98016.56;;;27.97;50.50
80624;BME280;70269;44.768;9.600;2023-08-12T08:30:25;98015.88;;;26.64;52.95
80624;BME280;70269;44.768;9.600;2023-08-12T08:32:51;98015.78;;;27.01;52.27
80624;BME280;70269;44.768;9.600;2023-08-12T08:35:16;98018.53;;;26.69;52.51
80624;BME280;70269;44.768;9.600;2023-08-12T08:37:42;98012.81;;;26.79;52.59
80624;BME280;70269;44.768;9.600;2023-08-12T08:40:08;98018.88;;;27.27;52.89
80624;BME280;70269;44.768;9.600;2023-08-12T08:42:34;98014.69;;;27.70;51.43
80624;BME280;70269;44.768;9.600;2023-08-12T08:45:01;98007.91;;;27.63;50.83
80624;BME280;70269;44.768;9.600;2023-08-12T08:47:29;98017.81;;;27.91;49.33
80624;BME280;70269;44.768;9.600;2023-08-12T08:49:55;98010.91;;;28.02;50.52
80624;BME280;70269;44.768;9.600;2023-08-12T08:52:23;98010.06;;;28.15;49.82
80624;BME280;70269;44.768;9.600;2023-08-12T08:54:50;98000.59;;;27.67;51.13
80624;BME280;70269;44.768;9.600;2023-08-12T08:57:16;97997.03;;;28.38;50.62
80624;BME280;70269;44.768;9.600;2023-08-12T08:59:41;97999.69;;;28.43;47.80
80624;BME280;70269;44.768;9.600;2023-08-12T09:02:15;98006.31;;;28.56;48.25
80624;BME280;70269;44.768;9.600;2023-08-12T09:04:42;97998.28;;;28.77;48.56
80624;BME280;70269;44.768;9.600;2023-08-12T09:07:08;97994.06;;;29.10;48.44
80624;BME280;70269;44.768;9.600;2023-08-12T09:09:34;97997.56;;;28.71;47.91
80624;BME280;70269;44.768;9.600;2023-08-12T09:12:01;97993.66;;;28.28;48.49
80624;BME280;70269;44.768;9.600;2023-08-12T09:14:28;97990.63;;;27.66;50.13
80624;BME280;70269;44.768;9.600;2023-08-12T09:16:55;97993.88;;;27.95;49.31
80624;BME280;70269;44.768;9.600;2023-08-12T09:19:22;97990.22;;;28.08;49.26
80624;BME280;70269;44.768;9.600;2023-08-12T09:21:54;97993.41;;;28.15;48.85
80624;BME280;70269;44.768;9.600;2023-08-12T09:24:26;97994.00;;;28.48;48.92
80624;BME280;70269;44.768;9.600;2023-08-12T09:26:53;97982.72;;;28.98;47.37
80624;BME280;70269;44.768;9.600;2023-08-12T09:29:22;97992.53;;;28.73;48.89
80624;BME280;70269;44.768;9.600;2023-08-12T09:31:48;97996.25;;;28.46;48.93
80624;BME280;70269;44.768;9.600;2023-08-12T09:34:14;97991.03;;;28.23;49.22
80624;BME280;70269;44.768;9.600;2023-08-12T09:36:40;97992.31;;;28.39;48.51
80624;BME280;70269;44.768;9.600;2023-08-12T09:39:07;97995.63;;;28.72;49.17
80624;BME280;70269;44.768;9.600;2023-08-12T09:41:34;97990.34;;;28.62;48.17
80624;BME280;70269;44.768;9.600;2023-08-12T09:44:01;97994.44;;;28.20;49.25
80624;BME280;70269;44.768;9.600;2023-08-12T09:46:27;97982.31;;;28.60;48.61
80624;BME280;70269;44.768;9.600;2023-08-12T09:48:53;97984.50;;;28.72;48.59
80624;BME280;70269;44.768;9.600;2023-08-12T09:51:21;97981.38;;;28.87;48.27
80624;BME280;70269;44.768;9.600;2023-08-12T09:53:48;97980.31;;;29.14;48.67
80624;BME280;70269;44.768;9.600;2023-08-12T09:56:22;97979.72;;;28.86;47.80
80624;BME280;70269;44.768;9.600;2023-08-12T09:58:49;97974.44;;;28.76;47.62
80624;BME280;70269;44.768;9.600;2023-08-12T10:01:18;97970.22;;;28.65;47.87
80624;BME280;70269;44.768;9.600;2023-08-12T10:03:49;97970.25;;;28.87;47.40
80624;BME280;70269;44.768;9.600;2023-08-12T10:06:17;97962.06;;;28.90;48.53
80624;BME280;70269;44.768;9.600;2023-08-12T10:08:45;97968.41;;;28.82;46.80
80624;BME280;70269;44.768;9.600;2023-08-12T10:11:11;97956.38;;;28.95;46.90
80624;BME280;70269;44.768;9.600;2023-08-12T10:13:37;97960.75;;;29.19;47.27
80624;BME280;70269;44.768;9.600;2023-08-12T10:16:03;97963.53;;;29.27;47.88
80624;BME280;70269;44.768;9.600;2023-08-12T10:18:30;97954.16;;;28.75;47.73
80624;BME280;70269;44.768;9.600;2023-08-12T10:21:00;97960.94;;;28.91;47.26
80624;BME280;70269;44.768;9.600;2023-08-12T10:23:25;97950.47;;;28.88;47.90
80624;BME280;70269;44.768;9.600;2023-08-12T10:25:54;97944.31;;;29.00;46.58
80624;BME280;70269;44.768;9.600;2023-08-12T10:28:20;97947.25;;;29.04;47.75
80624;BME280;70269;44.768;9.600;2023-08-12T10:30:46;97942.81;;;28.94;47.40
80624;BME280;70269;44.768;9.600;2023-08-12T10:33:14;97933.06;;;28.83;47.01
80624;BME280;70269;44.768;9.600;2023-08-12T10:35:46;97944.78;;;29.02;47.50
80624;BME280;70269;44.768;9.600;2023-08-12T10:38:24;97942.06;;;28.80;47.36
80624;BME280;70269;44.768;9.600;2023-08-12T10:40:51;97937.69;;;28.87;47.34
80624;BME280;70269;44.768;9.600;2023-08-12T10:43:16;97936.09;;;28.42;48.63
80624;BME280;70269;44.768;9.600;2023-08-12T10:45:51;97934.25;;;28.82;48.44
80624;BME280;70269;44.768;9.600;2023-08-12T10:50:49;97934.56;;;29.28;46.93
80624;BME280;70269;44.768;9.600;2023-08-12T10:55:58;97921.78;;;29.19;46.75
80624;BME280;70269;44.768;9.600;2023-08-12T10:58:33;97918.00;;;29.15;46.14
80624;BME280;70269;44.768;9.600;2023-08-12T11:00:59;97912.44;;;29.06;46.64
80624;BME280;70269;44.768;9.600;2023-08-12T11:03:25;97914.75;;;29.13;46.35
80624;BME280;70269;44.768;9.600;2023-08-12T11:05:52;97917.31;;;29.01;46.69
80624;BME280;70269;44.768;9.600;2023-08-12T11:08:24;97907.59;;;28.89;46.19
80624;BME280;70269;44.768;9.600;2023-08-12T11:10:52;97907.22;;;28.82;46.09
80624;BME280;70269;44.768;9.600;2023-08-12T11:13:19;97905.31;;;28.91;46.90
80624;BME280;70269;44.768;9.600;2023-08-12T11:15:45;97898.19;;;29.08;46.19
80624;BME280;70269;44.768;9.600;2023-08-12T11:18:20;97896.25;;;29.17;46.16
80624;BME280;70269;44.768;9.600;2023-08-12T11:20:48;97894.88;;;29.37;46.36
80624;BME280;70269;44.768;9.600;2023-08-12T11:23:14;97883.69;;;29.28;46.39
80624;BME280;70269;44.768;9.600;2023-08-12T11:25:42;97888.69;;;29.09;46.36
80624;BME280;70269;44.768;9.600;2023-08-12T11:28:07;97880.84;;;29.11;45.65
80624;BME280;70269;44.768;9.600;2023-08-12T11:30:33;97889.78;;;28.90;45.78
80624;BME280;70269;44.768;9.600;2023-08-12T11:33:01;97886.09;;;29.12;46.14
80624;BME280;70269;44.768;9.600;2023-08-12T11:35:26;97892.72;;;28.85;45.43
80624;BME280;70269;44.768;9.600;2023-08-12T11:37:54;97881.91;;;28.84;45.81
80624;BME280;70269;44.768;9.600;2023-08-12T11:40:22;97881.72;;;29.28;44.75
80624;BME280;70269;44.768;9.600;2023-08-12T11:42:49;97881.00;;;29.06;45.67
80624;BME280;70269;44.768;9.600;2023-08-12T11:45:19;97884.97;;;29.22;45.24
80624;BME280;70269;44.768;9.600;2023-08-12T11:47:45;97881.38;;;29.21;45.39
80624;BME280;70269;44.768;9.600;2023-08-12T11:50:18;97886.31;;;28.85;45.30
80624;BME280;70269;44.768;9.600;2023-08-12T11:52:44;97891.53;;;28.78;45.92
80624;BME280;70269;44.768;9.600;2023-08-12T11:55:11;97877.84;;;28.90;44.81
80624;BME280;70269;44.768;9.600;2023-08-12T11:57:39;97860.84;;;28.91;45.48
80624;BME280;70269;44.768;9.600;2023-08-12T12:00:05;97870.63;;;28.80;45.08
80624;BME280;70269;44.768;9.600;2023-08-12T12:02:39;97864.75;;;28.90;45.14
80624;BME280;70269;44.768;9.600;2023-08-12T12:05:10;97866.91;;;28.93;44.83
80624;BME280;70269;44.768;9.600;2023-08-12T12:07:36;97861.00;;;28.95;45.20
80624;BME280;70269;44.768;9.600;2023-08-12T12:10:02;97853.47;;;28.87;44.71
80624;BME280;70269;44.768;9.600;2023-08-12T12:12:27;97860.22;;;28.94;44.62
80624;BME280;70269;44.768;9.600;2023-08-12T12:14:53;97855.66;;;29.16;44.79
80624;BME280;70269;44.768;9.600;2023-08-12T12:17:23;97853.69;;;29.08;43.58
80624;BME280;70269;44.768;9.600;2023-08-12T12:19:54;97857.09;;;28.96;44.58
80624;BME280;70269;44.768;9.600;2023-08-12T12:22:28;97844.69;;;28.71;44.70
80624;BME280;70269;44.768;9.600;2023-08-12T12:24:57;97857.28;;;28.69;44.39
80624;BME280;70269;44.768;9.600;2023-08-12T12:27:24;97853.38;;;28.70;44.56
80624;BME280;70269;44.768;9.600;2023-08-12T12:29:49;97853.34;;;29.01;44.60
80624;BME280;70269;44.768;9.600;2023-08-12T12:32:18;97851.63;;;28.82;44.72
80624;BME280;70269;44.768;9.600;2023-08-12T12:34:43;97848.06;;;28.82;44.17
80624;BME280;70269;44.768;9.600;2023-08-12T12:37:09;97846.88;;;28.74;44.27
80624;BME280;70269;44.768;9.600;2023-08-12T12:39:34;97850.47;;;28.75;44.52
80624;BME280;70269;44.768;9.600;2023-08-12T12:42:00;97844.09;;;28.74;44.49
80624;BME280;70269;44.768;9.600;2023-08-12T12:44:26;97839.22;;;28.80;44.75
80624;BME280;70269;44.768;9.600;2023-08-12T12:46:52;97835.31;;;28.89;43.97
80624;BME280;70269;44.768;9.600;2023-08-12T12:49:17;97837.47;;;29.01;43.58
80624;BME280;70269;44.768;9.600;2023-08-12T12:51:43;97837.16;;;29.03;44.08
80624;BME280;70269;44.768;9.600;2023-08-12T12:54:08;97838.66;;;29.17;45.20
80624;BME280;70269;44.768;9.600;2023-08-12T12:56:34;97832.59;;;29.07;43.73
80624;BME280;70269;44.768;9.600;2023-08-12T12:59:00;97833.38;;;28.99;43.82
80624;BME280;70269;44.768;9.600;2023-08-12T13:01:25;97830.13;;;29.14;43.71
80624;BME280;70269;44.768;9.600;2023-08-12T13:03:51;97831.63;;;29.20;43.80